Time;durP1;ratioP1;P1;durP2;ratioP2;P2;SDS_P1;SDS_P2;PMS_P1;PMS_P2;Temp;Humidity;BMP_temperature;BMP_pressure;BME280_temperature;BME280_humidity;BME280_pressure;Samples;Min_cycle;Max_cycle;Signal;HPM_P1;HPM_P2
2023/08/10 00:02:25;;;;;;;3.60;3.20;;;14.10;99.90;;;;;;5050933;28;20392;-79
2023/08/10 00:04:50;;;;;;;6.73;3.40;;;14.10;99.90;;;;;;5033071;28;20408;-79
2023/08/10 00:07:16;;;;;;;6.53;3.55;;;14.00;99.90;;;;;;5032335;28;20395;-79
2023/08/10 00:09:41;;;;;;;3.47;2.93;;;14.00;99.90;;;;;;5034017;28;20394;-79
2023/08/10 00:12:07;;;;;;;4.47;3.00;;;14.00;99.90;;;;;;5032236;28;20383;-78
2023/08/10 00:14:33;;;;;;;3.10;2.90;;;13.90;99.90;;;;;;5032487;28;20398;-78
2023/08/10 00:16:58;;;;;;;3.50;3.08;;;14.00;99.90;;;;;;5032736;28;20378;-78
2023/08/10 00:19:24;;;;;;;4.50;3.13;;;14.00;99.90;;;;;;5032590;28;20422;-78
2023/08/10 00:21:49;;;;;;;4.40;3.63;;;14.00;99.90;;;;;;5032505;28;20419;-78
2023/08/10 00:24:15;;;;;;;3.70;3.30;;;14.00;99.90;;;;;;5032507;28;20383;-78
2023/08/10 00:26:40;;;;;;;4.30;3.50;;;14.00;99.90;;;;;;5032482;28;20498;-78
2023/08/10 00:29:06;;;;;;;3.80;3.30;;;14.10;99.90;;;;;;5032284;28;20387;-79
2023/08/10 00:31:31;;;;;;;3.10;2.80;;;14.10;99.90;;;;;;5030711;28;20424;-79
2023/08/10 00:33:57;;;;;;;3.97;2.80;;;14.00;99.90;;;;;;5031724;28;20507;-79
2023/08/10 00:36:23;;;;;;;5.23;3.20;;;14.00;99.90;;;;;;5029910;28;20395;-79
2023/08/10 00:38:48;;;;;;;3.20;2.90;;;14.00;99.90;;;;;;5031688;28;20525;-79
2023/08/10 00:41:14;;;;;;;3.22;2.92;;;13.90;99.90;;;;;;5031907;28;20560;-79
2023/08/10 00:43:42;;;;;;;3.40;3.10;;;14.00;99.90;;;;;;5031688;28;20478;-79
2023/08/10 00:46:10;;;;;;;3.63;3.22;;;14.00;99.90;;;;;;5029995;28;20413;-79
2023/08/10 00:48:35;;;;;;;3.40;3.10;;;14.00;99.90;;;;;;5047386;28;20879;-79
2023/08/10 00:51:01;;;;;;;3.70;3.00;;;13.90;99.90;;;;;;5030460;28;20387;-79
2023/08/10 00:53:27;;;;;;;3.90;2.97;;;13.90;99.90;;;;;;5031847;28;20827;-79
2023/08/10 00:55:53;;;;;;;3.67;3.37;;;13.90;99.90;;;;;;5032736;28;20437;-79
2023/08/10 00:58:20;;;;;;;4.88;3.40;;;13.90;99.90;;;;;;5031431;28;20470;-79
2023/08/10 01:00:46;;;;;;;3.70;3.40;;;13.80;99.90;;;;;;5046895;28;20437;-79
2023/08/10 01:03:12;;;;;;;3.80;3.20;;;14.20;99.90;;;;;;5030348;28;20394;-78
2023/08/10 01:05:50;;;;;;;3.92;3.10;;;13.80;99.90;;;;;;5031615;28;20934;-79
2023/08/10 01:08:39;;;;;;;4.43;3.10;;;13.90;99.90;;;;;;5046663;28;20401;-78
2023/08/10 01:11:28;;;;;;;3.17;2.97;;;13.90;99.90;;;;;;5031320;28;20383;-78
2023/08/10 01:14:03;;;;;;;3.90;3.00;;;13.90;99.90;;;;;;5031030;28;20962;-78
2023/08/10 01:16:31;;;;;;;3.20;2.80;;;13.90;99.90;;;;;;5031052;28;20397;-78
2023/08/10 01:18:58;;;;;;;4.82;3.00;;;13.90;99.90;;;;;;5031466;28;20460;-79
2023/08/10 01:21:37;;;;;;;3.47;3.00;;;13.50;99.90;;;;;;5035057;28;20390;-78
2023/08/10 01:24:14;;;;;;;3.30;3.00;;;13.90;99.90;;;;;;5034645;28;20474;-79
2023/08/10 01:26:39;;;;;;;3.30;2.75;;;13.90;99.90;;;;;;5049924;28;20460;-79
2023/08/10 01:29:05;;;;;;;3.40;3.10;;;13.90;99.90;;;;;;5034715;28;20395;-79
2023/08/10 01:31:31;;;;;;;4.30;3.08;;;13.50;99.90;;;;;;5035210;28;20439;-79
2023/08/10 01:33:56;;;;;;;3.20;3.00;;;13.90;99.90;;;;;;5034607;28;20407;-79
2023/08/10 01:36:22;;;;;;;3.58;3.10;;;13.80;99.90;;;;;;5033268;28;20478;-79
2023/08/10 01:38:47;;;;;;;3.50;3.20;;;13.90;99.90;;;;;;5034956;28;21054;-79
2023/08/10 01:41:13;;;;;;;4.40;3.13;;;13.80;99.90;;;;;;5049476;28;20458;-78
2023/08/10 01:43:39;;;;;;;3.72;2.95;;;13.80;99.90;;;;;;5034197;28;20558;-79
2023/08/10 01:46:10;;;;;;;3.50;3.03;;;13.70;99.90;;;;;;5034344;28;20411;-79
2023/08/10 01:48:39;;;;;;;6.70;3.30;;;13.70;99.90;;;;;;5034820;28;20383;-79
2023/08/10 01:51:07;;;;;;;3.03;2.80;;;13.30;99.90;;;;;;5034329;28;20378;-79
2023/08/10 01:53:34;;;;;;;4.15;2.80;;;13.80;99.90;;;;;;5034360;28;20386;-79
2023/08/10 01:56:01;;;;;;;5.25;3.17;;;13.80;99.90;;;;;;5034669;28;20433;-79
2023/08/10 01:58:26;;;;;;;3.13;2.92;;;13.60;99.90;;;;;;5049500;28;20387;-79
2023/08/10 02:00:52;;;;;;;3.20;2.90;;;13.60;99.90;;;;;;5034437;28;20387;-78
2023/08/10 02:03:18;;;;;;;4.90;3.10;;;13.50;99.90;;;;;;5034386;28;20383;-79
2023/08/10 02:05:44;;;;;;;4.22;3.30;;;13.50;99.90;;;;;;5032357;28;20403;-79
2023/08/10 02:08:09;;;;;;;5.10;3.50;;;13.70;99.90;;;;;;5034441;28;20395;-79
2023/08/10 02:10:35;;;;;;;3.20;2.90;;;13.70;99.90;;;;;;5034112;28;20383;-79
2023/08/10 02:13:00;;;;;;;3.90;3.20;;;13.60;99.90;;;;;;5034271;28;20448;-78
2023/08/10 02:15:26;;;;;;;3.00;2.80;;;13.70;99.90;;;;;;5033853;28;20429;-79
2023/08/10 02:17:52;;;;;;;3.77;3.37;;;13.50;99.90;;;;;;5033830;28;20533;-79
2023/08/10 02:20:18;;;;;;;4.63;3.55;;;13.50;99.90;;;;;;5034103;28;20827;-79
2023/08/10 02:22:49;;;;;;;4.38;3.67;;;13.90;99.90;;;;;;5033528;28;20383;-79
2023/08/10 02:25:15;;;;;;;3.00;2.80;;;13.30;99.90;;;;;;5032598;28;20453;-79
2023/08/10 02:27:41;;;;;;;4.13;3.30;;;13.60;99.90;;;;;;5034146;28;20376;-79
2023/08/10 02:30:08;;;;;;;3.47;3.17;;;13.50;99.90;;;;;;5033776;28;20383;-79
2023/08/10 02:32:35;;;;;;;3.60;3.30;;;13.50;99.90;;;;;;5033090;28;20387;-79
2023/08/10 02:35:00;;;;;;;4.10;3.50;;;12.90;99.90;;;;;;5032047;28;20474;-79
2023/08/10 02:37:26;;;;;;;6.50;2.90;;;13.60;99.90;;;;;;5032187;28;20478;-79
2023/08/10 02:39:52;;;;;;;4.35;3.30;;;13.50;99.90;;;;;;5033024;28;20433;-79
2023/08/10 02:42:17;;;;;;;3.40;3.10;;;13.50;99.90;;;;;;5029154;28;20919;-79
2023/08/10 02:44:44;;;;;;;3.17;2.90;;;13.50;99.90;;;;;;5033253;28;20477;-78
2023/08/10 02:47:10;;;;;;;3.90;3.38;;;13.50;99.90;;;;;;5033166;28;20410;-78
2023/08/10 02:49:36;;;;;;;5.70;3.50;;;13.50;99.90;;;;;;5033434;28;20501;-78
2023/08/10 02:52:02;;;;;;;3.47;3.00;;;13.50;99.90;;;;;;5032775;28;20428;-78
2023/08/10 02:54:27;;;;;;;4.53;2.90;;;13.50;99.90;;;;;;5048116;28;20390;-79
2023/08/10 02:56:53;;;;;;;3.95;3.00;;;13.50;99.90;;;;;;5033433;28;20391;-79
2023/08/10 02:59:18;;;;;;;3.65;3.35;;;13.40;99.90;;;;;;5033012;28;20758;-79
2023/08/10 03:01:45;;;;;;;4.87;3.83;;;13.40;99.90;;;;;;5032764;28;20410;-79
2023/08/10 03:04:11;;;;;;;2.95;2.72;;;13.40;99.90;;;;;;5031666;28;20406;-79
2023/08/10 03:06:37;;;;;;;4.80;2.90;;;13.30;99.90;;;;;;5047707;28;20410;-79
2023/08/10 03:09:03;;;;;;;4.40;3.30;;;13.30;99.90;;;;;;5032949;28;20391;-79
2023/08/10 03:11:30;;;;;;;4.40;3.10;;;13.40;99.90;;;;;;5030764;28;20393;-79
2023/08/10 03:13:55;;;;;;;2.90;2.70;;;13.40;99.90;;;;;;5047535;28;20490;-79
2023/08/10 03:16:21;;;;;;;3.63;3.33;;;13.30;99.90;;;;;;5032531;28;20422;-79
2023/08/10 03:18:46;;;;;;;5.50;3.40;;;13.20;99.90;;;;;;5047834;28;20397;-79
2023/08/10 03:21:12;;;;;;;4.45;3.35;;;13.20;99.90;;;;;;5032253;28;20415;-79
2023/08/10 03:23:37;;;;;;;3.70;3.20;;;13.20;99.90;;;;;;5031158;28;20418;-79
2023/08/10 03:26:03;;;;;;;3.60;3.17;;;13.20;99.90;;;;;;5049930;28;20429;-79
2023/08/10 03:28:28;;;;;;;3.70;3.30;;;13.20;99.90;;;;;;5035324;28;20381;-79
2023/08/10 03:30:54;;;;;;;3.80;3.20;;;13.20;99.90;;;;;;5050950;28;20498;-79
2023/08/10 03:33:19;;;;;;;4.20;3.30;;;12.50;99.90;;;;;;5035283;28;20387;-79
2023/08/10 03:35:45;;;;;;;3.42;3.13;;;13.20;99.90;;;;;;5049085;28;20805;-79
2023/08/10 03:38:10;;;;;;;3.60;3.30;;;13.00;99.90;;;;;;5033479;28;20922;-79
2023/08/10 03:40:36;;;;;;;3.97;3.60;;;13.10;99.90;;;;;;5035005;28;20387;-79
2023/08/10 03:43:01;;;;;;;3.53;3.15;;;13.10;99.90;;;;;;5034231;28;20428;-79
2023/08/10 03:45:27;;;;;;;4.37;3.70;;;13.10;99.90;;;;;;5035069;28;20403;-79
2023/08/10 03:47:53;;;;;;;4.80;3.40;;;13.10;99.90;;;;;;5033097;28;20457;-79
2023/08/10 03:50:19;;;;;;;4.35;3.60;;;13.20;99.90;;;;;;5033295;28;20386;-79
2023/08/10 03:52:45;;;;;;;5.07;3.63;;;13.20;99.90;;;;;;5033128;28;20379;-79
2023/08/10 03:55:12;;;;;;;4.47;3.20;;;13.20;99.90;;;;;;5033132;28;20890;-79
2023/08/10 03:57:38;;;;;;;3.58;3.28;;;13.50;99.90;;;;;;5031744;28;20395;-79
2023/08/10 04:00:05;;;;;;;3.42;3.13;;;13.10;99.90;;;;;;5032839;28;20418;-80
2023/08/10 04:02:30;;;;;;;3.72;3.10;;;13.10;99.90;;;;;;5032899;28;20402;-79
2023/08/10 04:04:56;;;;;;;3.50;3.20;;;13.10;99.90;;;;;;5032735;28;20391;-79
2023/08/10 04:07:22;;;;;;;4.20;3.50;;;13.10;99.90;;;;;;5032837;28;20409;-79
2023/08/10 04:09:47;;;;;;;5.10;3.50;;;13.10;99.90;;;;;;5032827;28;20898;-79
2023/08/10 04:12:14;;;;;;;5.10;3.40;;;13.10;99.90;;;;;;5030962;28;20752;-79
2023/08/10 04:14:40;;;;;;;4.35;3.85;;;13.10;99.90;;;;;;5032688;28;20387;-79
2023/08/10 04:17:05;;;;;;;4.07;3.10;;;13.20;99.90;;;;;;5032710;28;20867;-79
2023/08/10 04:19:31;;;;;;;5.25;3.40;;;13.10;99.90;;;;;;5032707;28;20452;-79
2023/08/10 04:21:57;;;;;;;4.50;3.40;;;13.10;99.90;;;;;;5047412;28;20490;-79
2023/08/10 04:24:23;;;;;;;4.25;3.00;;;13.00;99.90;;;;;;5047842;28;20387;-79
2023/08/10 04:26:48;;;;;;;3.42;3.13;;;13.10;99.90;;;;;;5032011;28;20402;-79
2023/08/10 04:29:14;;;;;;;4.70;3.30;;;13.10;99.90;;;;;;5031162;28;20388;-79
2023/08/10 04:31:40;;;;;;;3.60;3.28;;;12.40;99.90;;;;;;5030445;28;20401;-79
2023/08/10 04:34:05;;;;;;;4.05;3.65;;;13.00;99.90;;;;;;5047487;28;20379;-79
2023/08/10 04:36:33;;;;;;;3.90;3.50;;;13.00;99.90;;;;;;5047483;28;20421;-79
2023/08/10 04:38:59;;;;;;;5.00;3.20;;;13.00;99.90;;;;;;5047264;28;20922;-79
2023/08/10 04:41:25;;;;;;;4.10;3.70;;;12.90;99.90;;;;;;5031879;28;20387;-79
2023/08/10 04:43:51;;;;;;;4.85;3.55;;;13.10;99.90;;;;;;5047355;28;20383;-79
2023/08/10 04:46:16;;;;;;;3.72;3.42;;;13.10;99.90;;;;;;5032031;28;20488;-79
2023/08/10 04:48:42;;;;;;;3.90;3.37;;;13.10;99.90;;;;;;5030534;28;20401;-79
2023/08/10 04:51:07;;;;;;;5.63;3.60;;;13.20;99.90;;;;;;5032243;28;20387;-79
2023/08/10 04:53:33;;;;;;;4.13;3.80;;;13.20;99.90;;;;;;5031687;28;20375;-79
2023/08/10 04:55:59;;;;;;;3.35;3.05;;;12.90;99.90;;;;;;5034049;28;20391;-79
2023/08/10 04:58:24;;;;;;;3.95;3.03;;;13.20;99.90;;;;;;5033665;28;20391;-79
2023/08/10 05:00:52;;;;;;;4.00;3.50;;;13.30;99.90;;;;;;5035809;28;20469;-79
2023/08/10 05:03:20;;;;;;;3.95;3.55;;;13.40;99.90;;;;;;5034165;28;20464;-79
2023/08/10 05:05:45;;;;;;;3.40;3.10;;;13.40;99.90;;;;;;5035838;28;20903;-79
2023/08/10 05:08:11;;;;;;;3.38;3.08;;;13.40;99.90;;;;;;5035640;28;20379;-79
2023/08/10 05:10:37;;;;;;;5.15;3.60;;;13.40;99.90;;;;;;5033422;28;20505;-79
2023/08/10 05:13:04;;;;;;;4.50;3.20;;;13.50;99.90;;;;;;5035073;28;20382;-79
2023/08/10 05:15:30;;;;;;;3.50;3.20;;;13.60;99.90;;;;;;5035712;28;20465;-79
2023/08/10 05:17:55;;;;;;;4.57;3.30;;;13.70;99.90;;;;;;5034144;28;20473;-79
2023/08/10 05:20:21;;;;;;;3.60;3.30;;;13.60;99.90;;;;;;5034790;28;20942;-79
2023/08/10 05:22:49;;;;;;;3.53;3.22;;;13.70;99.90;;;;;;5034583;28;20474;-79
2023/08/10 05:25:15;;;;;;;3.70;3.40;;;13.30;99.90;;;;;;5035532;28;20457;-79
2023/08/10 05:27:41;;;;;;;3.80;3.20;;;13.60;99.90;;;;;;5035093;28;20798;-79
2023/08/10 05:30:11;;;;;;;3.90;3.60;;;13.60;99.90;;;;;;5035120;28;20407;-79
2023/08/10 05:32:39;;;;;;;3.92;3.53;;;13.70;99.90;;;;;;5049665;28;20383;-79
2023/08/10 05:35:08;;;;;;;3.50;3.20;;;13.70;99.90;;;;;;5034648;28;20932;-79
2023/08/10 05:37:34;;;;;;;3.75;3.45;;;13.80;99.90;;;;;;5034869;28;20379;-79
2023/08/10 05:40:01;;;;;;;6.57;3.00;;;13.80;99.90;;;;;;5034826;28;20429;-79
2023/08/10 05:42:27;;;;;;;3.60;3.00;;;13.90;99.90;;;;;;5060247;22;20427;-82
2023/08/10 05:44:52;;;;;;;6.40;3.60;;;14.00;99.90;;;;;;5081173;28;20388;-82
2023/08/10 05:47:18;;;;;;;3.10;2.90;;;14.00;99.90;;;;;;5076753;28;20404;-82
2023/08/10 05:49:44;;;;;;;6.70;4.60;;;14.10;99.90;;;;;;5076949;28;20403;-83
2023/08/10 05:52:09;;;;;;;3.60;2.90;;;14.30;99.90;;;;;;5077884;28;20427;-83
2023/08/10 05:54:35;;;;;;;3.50;3.20;;;14.30;99.90;;;;;;5077318;28;20806;-82
2023/08/10 05:57:01;;;;;;;3.13;2.87;;;14.50;99.90;;;;;;5076926;28;20470;-83
2023/08/10 05:59:26;;;;;;;3.30;3.00;;;13.90;99.90;;;;;;5076896;28;20483;-83
2023/08/10 06:01:53;;;;;;;2.70;2.50;;;16.10;99.90;;;;;;5074710;28;20756;-83
2023/08/10 06:04:18;;;;;;;4.00;2.70;;;14.60;99.90;;;;;;5076695;28;20799;-83
2023/08/10 06:06:45;;;;;;;3.80;2.60;;;14.70;99.90;;;;;;5074851;28;20401;-82
2023/08/10 06:09:11;;;;;;;3.45;2.70;;;14.80;99.90;;;;;;5074026;28;20371;-82
2023/08/10 06:11:37;;;;;;;4.13;3.10;;;15.00;99.90;;;;;;5074223;28;20449;-83
2023/08/10 06:14:04;;;;;;;3.30;2.90;;;15.00;99.90;;;;;;5076092;28;20394;-83
2023/08/10 06:16:30;;;;;;;3.35;3.05;;;15.00;99.90;;;;;;5075726;28;20435;-83
2023/08/10 06:18:55;;;;;;;4.00;2.80;;;15.10;99.90;;;;;;5076072;28;20391;-83
2023/08/10 06:21:21;;;;;;;3.15;2.80;;;15.00;99.90;;;;;;5076176;28;20392;-83
2023/08/10 06:23:46;;;;;;;3.10;2.50;;;15.10;99.90;;;;;;5074383;28;20384;-82
2023/08/10 06:26:12;;;;;;;3.83;3.53;;;14.80;99.90;;;;;;5075360;28;20391;-83
2023/08/10 06:28:38;;;;;;;3.08;2.88;;;15.30;99.90;;;;;;5074017;28;20387;-83
2023/08/10 06:31:09;;;;;;;3.15;2.80;;;15.30;99.90;;;;;;5073829;28;20394;-83
2023/08/10 06:33:35;;;;;;;2.50;2.30;;;17.20;99.90;;;;;;5072244;28;20433;-83
2023/08/10 06:36:01;;;;;;;3.08;2.65;;;15.40;99.90;;;;;;5074439;28;20457;-83
2023/08/10 06:38:27;;;;;;;3.80;2.60;;;15.90;99.90;;;;;;5075382;28;20875;-83
2023/08/10 06:40:54;;;;;;;3.17;2.87;;;15.90;99.90;;;;;;5075692;28;20911;-83
2023/08/10 06:43:19;;;;;;;3.42;2.40;;;15.30;99.90;;;;;;5084968;28;20420;-82
2023/08/10 06:45:45;;;;;;;3.03;2.63;;;15.80;99.90;;;;;;5121908;28;20846;-82
2023/08/10 06:48:11;;;;;;;3.50;2.40;;;15.80;99.90;;;;;;5088538;28;20388;-82
2023/08/10 06:50:37;;;;;;;2.63;2.40;;;15.90;99.90;;;;;;5071540;28;20396;-82
2023/08/10 06:53:03;;;;;;;2.60;2.40;;;16.00;99.90;;;;;;5104985;28;20408;-83
2023/08/10 06:55:30;;;;;;;2.97;2.70;;;16.10;99.90;;;;;;5072208;28;20395;-82
2023/08/10 06:57:56;;;;;;;2.40;2.20;;;16.10;99.90;;;;;;5056653;28;20397;-83
2023/08/10 07:00:24;;;;;;;3.03;2.78;;;16.20;99.90;;;;;;5067066;28;20790;-83
2023/08/10 07:02:53;;;;;;;3.10;2.90;;;16.30;99.90;;;;;;5072923;28;20376;-83
2023/08/10 07:05:21;;;;;;;2.60;2.40;;;16.30;99.90;;;;;;5072568;28;20404;-84
2023/08/10 07:07:47;;;;;;;3.00;2.37;;;17.60;99.90;;;;;;5074630;28;20883;-83
2023/08/10 07:10:13;;;;;;;3.30;2.10;;;15.80;99.90;;;;;;5073705;28;20421;-83
2023/08/10 07:12:38;;;;;;;4.43;2.30;;;16.60;99.90;;;;;;5072275;28;20387;-83
2023/08/10 07:15:05;;;;;;;2.00;1.80;;;15.80;99.90;;;;;;5072403;28;20423;-83
2023/08/10 07:17:30;;;;;;;2.33;2.13;;;16.80;99.90;;;;;;5071750;28;20952;-83
2023/08/10 07:19:56;;;;;;;2.43;2.23;;;16.90;99.90;;;;;;5071941;28;20380;-83
2023/08/10 07:22:21;;;;;;;4.70;2.55;;;16.90;99.90;;;;;;5072149;28;20466;-83
2023/08/10 07:24:47;;;;;;;2.40;2.20;;;17.00;99.90;;;;;;5072771;28;20871;-83
2023/08/10 07:27:12;;;;;;;2.45;1.85;;;17.40;99.90;;;;;;5073669;28;20914;-83
2023/08/10 07:29:38;;;;;;;3.00;2.23;;;17.20;99.90;;;;;;5072270;28;20384;-83
2023/08/10 07:32:06;;;;;;;2.80;1.90;;;17.90;99.90;;;;;;5071226;28;20409;-83
2023/08/10 07:34:31;;;;;;;2.38;2.13;;;17.30;99.90;;;;;;5072225;28;20899;-83
2023/08/10 07:36:57;;;;;;;2.10;1.80;;;17.40;99.90;;;;;;5074160;28;20384;-83
2023/08/10 07:39:22;;;;;;;2.70;2.20;;;19.20;99.90;;;;;;5072880;28;20422;-84
2023/08/10 07:41:48;;;;;;;2.63;2.42;;;18.00;99.90;;;;;;5074192;28;21037;-83
2023/08/10 07:44:13;;;;;;;2.20;2.00;;;17.90;99.90;;;;;;5074373;28;20931;-84
2023/08/10 07:46:39;;;;;;;2.10;1.90;;;18.00;99.90;;;;;;5075686;28;20396;-84
2023/08/10 07:49:05;;;;;;;2.37;2.00;;;18.10;99.90;;;;;;5075582;28;20384;-83
2023/08/10 07:51:31;;;;;;;4.70;2.30;;;18.10;99.90;;;;;;5074056;28;20379;-83
2023/08/10 07:53:57;;;;;;;3.55;2.40;;;18.60;99.90;;;;;;5073733;28;20382;-83
2023/08/10 07:56:22;;;;;;;2.75;2.20;;;19.70;99.90;;;;;;5074400;28;20388;-82
2023/08/10 07:58:48;;;;;;;2.40;2.20;;;18.20;99.90;;;;;;5072583;28;20391;-83
2023/08/10 08:01:14;;;;;;;2.55;2.03;;;18.50;99.90;;;;;;5072359;28;20378;-83
2023/08/10 08:03:40;;;;;;;2.40;2.20;;;18.60;99.90;;;;;;5074507;28;20383;-84
2023/08/10 08:06:06;;;;;;;4.15;2.65;;;17.60;99.90;;;;;;5074258;28;20494;-82
2023/08/10 08:08:31;;;;;;;3.30;2.30;;;18.90;99.90;;;;;;5073864;28;20422;-84
2023/08/10 08:10:57;;;;;;;2.70;2.50;;;18.40;99.90;;;;;;5074146;28;20399;-85
2023/08/10 08:13:22;;;;;;;2.93;2.10;;;20.70;99.90;;;;;;5073424;28;20384;-83
2023/08/10 08:15:48;;;;;;;2.70;2.20;;;18.30;99.90;;;;;;5070981;28;20399;-84
2023/08/10 08:18:37;;;;;;;2.30;2.10;;;19.10;99.90;;;;;;5074129;28;20371;-83
2023/08/10 08:21:07;;;;;;;2.60;2.20;;;19.00;99.90;;;;;;5072035;28;20392;-84
2023/08/10 08:23:33;;;;;;;3.30;2.20;;;19.00;99.90;;;;;;5073567;28;20387;-84
2023/08/10 08:25:58;;;;;;;2.58;2.38;;;19.50;99.90;;;;;;5071813;28;21048;-84
2023/08/10 08:28:24;;;;;;;2.95;2.65;;;19.70;99.90;;;;;;5071696;28;20737;-83
2023/08/10 08:30:50;;;;;;;2.67;2.23;;;18.60;99.90;;;;;;5072313;28;20494;-84
2023/08/10 08:33:16;;;;;;;3.53;2.40;;;18.90;99.90;;;;;;5071989;28;20387;-83
2023/08/10 08:35:45;;;;;;;2.50;2.30;;;19.50;99.90;;;;;;5073628;28;20387;-84
2023/08/10 08:38:11;;;;;;;3.30;2.22;;;19.80;99.90;;;;;;5072936;28;20766;-84
2023/08/10 08:40:36;;;;;;;4.18;2.70;;;19.80;99.90;;;;;;5072456;28;20416;-84
2023/08/10 08:43:03;;;;;;;2.55;2.30;;;20.00;99.90;;;;;;5073821;28;20952;-84
2023/08/10 08:45:29;;;;;;;3.92;2.20;;;20.20;99.90;;;;;;5072105;28;20454;-83
2023/08/10 08:47:55;;;;;;;3.15;2.10;;;20.30;99.90;;;;;;5075303;28;20375;-83
2023/08/10 08:50:22;;;;;;;3.70;2.30;;;20.30;99.90;;;;;;5079305;28;20402;-83
2023/08/10 08:52:48;;;;;;;2.70;2.50;;;20.30;99.90;;;;;;5087700;28;20380;-83
2023/08/10 08:55:14;;;;;;;3.40;2.40;;;21.40;99.90;;;;;;5083960;28;20417;-84
2023/08/10 08:57:39;;;;;;;2.40;2.10;;;20.50;99.90;;;;;;5091300;28;20395;-84
2023/08/10 09:00:06;;;;;;;2.50;2.30;;;19.80;99.90;;;;;;5082498;28;20482;-85
2023/08/10 09:02:32;;;;;;;2.50;2.20;;;20.50;99.90;;;;;;5091187;28;20463;-85
2023/08/10 09:05:01;;;;;;;3.80;2.38;;;20.60;99.90;;;;;;5090248;28;20400;-84
2023/08/10 09:07:28;;;;;;;3.40;2.30;;;20.70;99.90;;;;;;5092200;28;20391;-83
2023/08/10 09:09:54;;;;;;;2.30;2.10;;;20.90;99.90;;;;;;5091227;28;20384;-85
2023/08/10 09:12:34;;;;;;;2.75;2.30;;;22.00;99.90;;;;;;5090703;28;20379;-85
2023/08/10 09:15:03;;;;;;;2.17;1.98;;;20.80;99.90;;;;;;5085689;28;20419;-85
2023/08/10 09:17:29;;;;;;;2.90;1.90;;;20.90;99.90;;;;;;5082363;28;20443;-85
2023/08/10 09:19:55;;;;;;;2.42;1.90;;;21.10;99.90;;;;;;5078294;28;20445;-85
2023/08/10 09:22:34;;;;;;;4.53;2.08;;;21.20;99.90;;;;;;5078542;28;20851;-85
2023/08/10 09:25:01;;;;;;;3.10;2.10;;;21.30;99.90;;;;;;5076286;28;20823;-85
2023/08/10 09:27:28;;;;;;;2.00;1.80;;;23.10;99.90;;;;;;5077191;28;20875;-84
2023/08/10 09:30:14;;;;;;;3.17;2.03;;;20.80;99.90;;;;;;5076198;28;20795;-85
2023/08/10 09:32:40;;;;;;;1.90;1.65;;;22.60;99.90;;;;;;5074807;28;20394;-84
2023/08/10 09:35:15;;;;;;;2.10;1.90;;;21.00;99.90;;;;;;5075727;28;20400;-85
2023/08/10 09:37:41;;;;;;;1.90;1.80;;;21.60;99.90;;;;;;5074641;28;20487;-85
2023/08/10 09:40:11;;;;;;;1.98;1.80;;;20.70;99.90;;;;;;5074953;28;21024;-85
2023/08/10 09:42:38;;;;;;;1.63;1.48;;;21.60;99.90;;;;;;5077669;28;20404;-85
2023/08/10 09:45:12;;;;;;;3.03;1.80;;;22.10;99.90;;;;;;5075525;28;20431;-85
2023/08/10 09:47:39;;;;;;;1.80;1.70;;;21.40;99.90;;;;;;5077109;28;20387;-84
2023/08/10 09:50:12;;;;;;;3.85;1.90;;;20.60;99.90;;;;;;5079969;28;20902;-84
2023/08/10 09:52:38;;;;;;;7.95;2.60;;;21.80;99.90;;;;;;5077362;28;20767;-84
2023/08/10 09:55:06;;;;;;;4.27;2.50;;;21.80;99.90;;;;;;5078042;28;20403;-83
2023/08/10 09:57:32;;;;;;;3.60;2.20;;;21.90;99.90;;;;;;5103008;28;20411;-84
2023/08/10 09:59:57;;;;;;;3.78;2.10;;;22.80;99.90;;;;;;5104930;28;20446;-83
2023/08/10 10:02:24;;;;;;;2.92;2.13;;;23.20;99.90;;;;;;5094698;28;20491;-85
2023/08/10 10:04:50;;;;;;;2.80;2.10;;;22.10;99.90;;;;;;5095752;28;20421;-81
2023/08/10 10:07:25;;;;;;;2.00;1.90;;;22.40;99.90;;;;;;5097144;28;20439;-83
2023/08/10 10:09:51;;;;;;;2.05;1.90;;;22.90;99.90;;;;;;5104292;28;20390;-80
2023/08/10 10:12:18;;;;;;;1.93;1.83;;;22.50;99.90;;;;;;5103299;28;20420;-83
2023/08/10 10:14:47;;;;;;;1.90;1.70;;;22.60;99.90;;;;;;5085503;28;20408;-84
2023/08/10 10:17:17;;;;;;;2.45;1.70;;;21.90;99.90;;;;;;5076107;28;20403;-83
2023/08/10 10:19:44;;;;;;;2.20;1.70;;;22.50;99.90;;;;;;5076066;28;20408;-85
2023/08/10 10:22:11;;;;;;;1.90;1.70;;;22.50;99.90;;;;;;5074878;28;20411;-83
2023/08/10 10:24:41;;;;;;;1.85;1.58;;;22.30;99.90;;;;;;5107439;28;20411;-84
2023/08/10 10:27:09;;;;;;;1.60;1.50;;;23.90;99.90;;;;;;5076827;28;20407;-82
2023/08/10 10:29:43;;;;;;;2.30;2.08;;;22.60;99.90;;;;;;5077346;28;20435;-83
2023/08/10 10:32:18;;;;;;;10.07;4.90;;;22.70;99.90;;;;;;5077938;28;20486;-84
2023/08/10 10:34:45;;;;;;;57.90;19.98;;;22.70;99.90;;;;;;5099367;28;20451;-85
2023/08/10 10:37:15;;;;;;;2.40;2.20;;;22.80;99.90;;;;;;5072761;28;20507;-84
2023/08/10 10:39:49;;;;;;;2.20;1.80;;;23.10;99.90;;;;;;5075673;28;20380;-83
2023/08/10 10:42:20;;;;;;;3.80;1.80;;;23.20;99.90;;;;;;5083250;28;20446;-83
2023/08/10 10:45:03;;;;;;;2.60;1.90;;;23.00;99.90;;;;;;5078100;28;20398;-83
2023/08/10 10:47:47;;;;;;;3.83;2.20;;;23.20;99.90;;;;;;5094385;28;20433;-83
2023/08/10 10:50:22;;;;;;;1.83;1.70;;;23.10;99.90;;;;;;5095992;28;20397;-83
2023/08/10 10:53:01;;;;;;;1.85;1.65;;;23.30;99.90;;;;;;5082110;28;20407;-83
2023/08/10 10:55:40;;;;;;;1.88;1.77;;;23.40;99.90;;;;;;5086491;28;20392;-82
2023/08/10 10:58:07;;;;;;;1.50;1.40;;;24.40;99.90;;;;;;5083395;28;20391;-83
2023/08/10 11:00:36;;;;;;;2.00;1.85;;;23.50;99.90;;;;;;5082946;28;20380;-83
2023/08/10 11:03:03;;;;;;;2.42;2.00;;;22.60;99.90;;;;;;5107997;28;20443;-82
2023/08/10 11:05:29;;;;;;;2.50;1.70;;;23.70;99.90;;;;;;5084130;28;20441;-82
2023/08/10 11:07:55;;;;;;;2.40;1.80;;;23.80;99.90;;;;;;5071736;28;21501;-82
2023/08/10 11:10:21;;;;;;;2.00;1.80;;;23.90;99.90;;;;;;5072262;28;20405;-83
2023/08/10 11:12:48;;;;;;;2.20;2.00;;;24.10;99.90;;;;;;5074412;28;20387;-83
2023/08/10 11:15:15;;;;;;;1.75;1.65;;;24.30;99.90;;;;;;5077313;28;20891;-84
2023/08/10 11:17:46;;;;;;;2.25;1.80;;;25.80;99.90;;;;;;5079939;28;20451;-83
2023/08/10 11:20:14;;;;;;;1.77;1.50;;;25.40;99.90;;;;;;5083784;28;20409;-80
2023/08/10 11:22:58;;;;;;;2.47;1.65;;;24.50;99.90;;;;;;5081516;28;20733;-83
2023/08/10 11:25:25;;;;;;;1.98;1.70;;;24.50;99.90;;;;;;5074323;28;20417;-80
2023/08/10 11:27:53;;;;;;;2.13;1.80;;;25.30;99.90;;;;;;5082638;28;20465;-79
2023/08/10 11:30:22;;;;;;;2.70;1.77;;;24.50;99.90;;;;;;5072419;28;20391;-80
2023/08/10 11:32:53;;;;;;;2.20;2.00;;;24.80;99.90;;;;;;5081583;28;20773;-80
2023/08/10 11:35:23;;;;;;;2.10;1.90;;;25.20;99.90;;;;;;5097508;28;20400;-79
2023/08/10 11:37:50;;;;;;;1.73;1.63;;;25.30;99.90;;;;;;5084721;28;20403;-82
2023/08/10 11:40:18;;;;;;;2.33;2.00;;;25.50;99.90;;;;;;5087373;28;20396;-81
2023/08/10 11:43:02;;;;;;;1.87;1.77;;;25.80;99.90;;;;;;5087210;28;20404;-82
